Time;durP1;ratioP1;P1;durP2;ratioP2;P2;SDS_P1;SDS_P2;PMS_P1;PMS_P2;Temp;Humidity;BMP_temperature;BMP_pressure;BME280_temperature;BME280_humidity;BME280_pressure;Samples;Min_cycle;Max_cycle;Signal;HPM_P1;HPM_P2
2022/02/26 00:00:49;;;;;;;1.60;1.10;;;;;;;10.07;67.45;101611.13;2065602;28;20435;-75
2022/02/26 00:02:12;;;;;;;4.78;1.38;;;;;;;10.00;67.36;101608.31;2073591;28;20387;-76
2022/02/26 00:03:34;;;;;;;3.70;1.80;;;;;;;9.95;67.62;101609.91;2074962;28;20132;-76
2022/02/26 00:04:57;;;;;;;2.90;1.33;;;;;;;9.92;67.59;101616.81;2064269;28;20141;-76
2022/02/26 00:06:20;;;;;;;3.60;1.23;;;;;;;9.89;67.53;101611.44;2070833;28;20121;-76
2022/02/26 00:07:44;;;;;;;2.47;1.05;;;;;;;9.84;67.67;101610.41;2075300;28;20137;-76
2022/02/26 00:09:07;;;;;;;3.50;1.15;;;;;;;9.80;68.05;101608.50;2075354;28;20714;-76
2022/02/26 00:10:30;;;;;;;3.22;1.27;;;;;;;9.77;67.82;101609.31;2073877;28;20076;-76
2022/02/26 00:11:53;;;;;;;4.28;1.73;;;;;;;9.76;68.07;101606.63;2067472;28;20054;-76
2022/02/26 00:13:15;;;;;;;6.50;1.55;;;;;;;9.79;68.07;101604.06;2064594;28;20057;-76
2022/02/26 00:14:38;;;;;;;2.13;1.00;;;;;;;9.78;68.04;101603.19;2072102;28;20050;-75
2022/02/26 00:16:00;;;;;;;3.78;1.40;;;;;;;9.77;67.85;101608.44;2081718;28;20041;-76
2022/02/26 00:17:23;;;;;;;3.25;1.13;;;;;;;9.72;68.01;101610.00;2077701;28;20136;-76
2022/02/26 00:18:46;;;;;;;5.43;1.48;;;;;;;9.72;68.05;101612.63;2068420;28;20128;-76
2022/02/26 00:20:09;;;;;;;3.60;0.95;;;;;;;9.73;68.09;101606.50;2077426;28;20143;-76
2022/02/26 00:21:32;;;;;;;2.40;1.10;;;;;;;9.71;68.04;101606.50;2078728;28;20103;-76
2022/02/26 00:22:54;;;;;;;1.95;1.10;;;;;;;9.71;68.00;101608.22;2074655;28;20046;-77
2022/02/26 00:24:17;;;;;;;4.80;1.30;;;;;;;9.65;67.96;101601.00;2066319;28;20038;-76
2022/02/26 00:25:40;;;;;;;3.38;1.02;;;;;;;9.64;68.27;101599.22;2071830;28;20049;-76
2022/02/26 00:27:03;;;;;;;2.40;0.95;;;;;;;9.64;68.08;101608.88;2075089;28;20049;-76
2022/02/26 00:28:26;;;;;;;3.33;0.90;;;;;;;9.65;68.20;101600.13;2074842;28;20841;-76
2022/02/26 00:29:47;;;;;;;4.20;1.33;;;;;;;9.67;68.32;101604.59;2066197;28;20048;-76
2022/02/26 00:31:10;;;;;;;1.85;1.00;;;;;;;9.66;67.89;101596.63;2073071;28;20549;-76
2022/02/26 00:32:32;;;;;;;4.97;1.70;;;;;;;9.66;68.08;101604.53;2070672;28;20045;-76
2022/02/26 00:33:56;;;;;;;5.72;1.55;;;;;;;9.65;68.02;101594.84;2068055;28;20125;-76
2022/02/26 00:35:18;;;;;;;5.65;1.48;;;;;;;9.64;68.31;101600.97;2073570;28;20036;-76
2022/02/26 00:36:40;;;;;;;2.33;1.38;;;;;;;9.64;67.84;101604.50;2076286;28;20146;-76
2022/02/26 00:38:05;;;;;;;6.68;3.40;;;;;;;9.67;67.80;101598.41;2077747;28;20050;-76
2022/02/26 00:39:27;;;;;;;5.68;2.65;;;;;;;9.67;68.09;101601.03;2075978;28;20423;-75
2022/02/26 00:40:50;;;;;;;6.90;3.10;;;;;;;9.69;68.06;101607.28;2076264;28;20057;-76
2022/02/26 00:42:13;;;;;;;6.10;3.63;;;;;;;9.69;67.89;101607.28;2067811;28;20042;-76
2022/02/26 00:43:34;;;;;;;5.45;2.20;;;;;;;9.68;68.06;101597.56;2067736;28;20057;-76
2022/02/26 00:44:57;;;;;;;3.60;1.92;;;;;;;9.67;67.82;101598.41;2072532;28;20140;-76
2022/02/26 00:46:18;;;;;;;4.85;1.80;;;;;;;9.66;67.84;101600.16;2067539;28;20072;-76
2022/02/26 00:47:41;;;;;;;4.68;1.85;;;;;;;9.65;68.00;101594.84;2055651;28;20050;-76
2022/02/26 00:50:44;;;;;;;3.55;1.60;;;;;;;9.54;67.58;101595.38;2078182;28;20057;-76
2022/02/26 00:52:06;;;;;;;4.30;1.75;;;;;;;9.50;67.71;101593.50;2075475;28;20053;-76
2022/02/26 00:53:30;;;;;;;6.13;2.10;;;;;;;9.49;67.90;101589.06;2075407;28;20148;-76
2022/02/26 00:54:53;;;;;;;4.82;1.73;;;;;;;9.45;68.14;101589.78;2067490;28;20100;-75
2022/02/26 00:56:14;;;;;;;3.95;1.60;;;;;;;9.44;67.89;101584.50;2074531;28;20140;-76
2022/02/26 00:57:37;;;;;;;4.93;1.30;;;;;;;9.42;67.73;101594.06;2068367;28;20101;-75
2022/02/26 00:58:58;;;;;;;14.00;1.80;;;;;;;9.37;67.82;101591.28;2072545;28;20128;-76
2022/02/26 01:00:21;;;;;;;5.57;1.42;;;;;;;9.36;67.90;101594.78;2075596;28;20057;-75
2022/02/26 01:01:45;;;;;;;1.88;1.17;;;;;;;9.33;68.17;101584.13;2074973;28;20089;-76
2022/02/26 01:03:07;;;;;;;3.10;1.40;;;;;;;9.32;67.98;101586.72;2067920;28;20050;-76
2022/02/26 01:04:30;;;;;;;1.20;0.77;;;;;;;9.29;67.73;101592.78;2065431;28;20045;-76
2022/02/26 01:05:51;;;;;;;2.95;1.40;;;;;;;9.29;68.24;101587.50;2067130;28;20050;-76
2022/02/26 01:07:15;;;;;;;5.72;1.95;;;;;;;9.32;67.97;101589.34;2081135;28;20103;-76
2022/02/26 01:08:37;;;;;;;2.92;1.30;;;;;;;9.35;68.23;101586.81;2062227;28;20095;-76
2022/02/26 01:10:00;;;;;;;1.60;0.93;;;;;;;9.35;68.04;101590.34;2071184;28;20041;-76
2022/02/26 01:11:21;;;;;;;2.90;1.35;;;;;;;9.36;68.19;101592.13;2067432;28;20163;-76
2022/02/26 01:12:44;;;;;;;2.92;2.05;;;;;;;9.35;68.03;101585.06;2071356;28;20050;-76
2022/02/26 01:14:05;;;;;;;3.13;1.58;;;;;;;9.37;68.32;101587.75;2067013;28;20042;-76
2022/02/26 01:15:29;;;;;;;4.95;2.42;;;;;;;9.38;68.12;101581.66;2065089;28;20073;-76
2022/02/26 01:16:51;;;;;;;8.75;4.13;;;;;;;9.35;67.87;101585.06;2074279;28;20408;-76
2022/02/26 01:18:13;;;;;;;3.83;2.28;;;;;;;9.35;68.16;101576.28;2075143;28;20061;-76
2022/02/26 01:19:36;;;;;;;2.67;1.50;;;;;;;9.35;67.90;101573.63;2075532;28;20046;-75
2022/02/26 01:20:59;;;;;;;4.40;2.05;;;;;;;9.33;67.88;101576.22;2076017;28;20549;-76
2022/02/26 01:22:21;;;;;;;4.40;1.80;;;;;;;9.30;68.13;101576.13;2076129;28;20072;-75
2022/02/26 01:23:44;;;;;;;7.43;1.52;;;;;;;9.27;68.14;101565.47;2066319;28;21324;-75
2022/02/26 01:25:07;;;;;;;3.53;1.42;;;;;;;9.27;68.16;101567.22;2066995;28;20042;-76
2022/02/26 01:26:30;;;;;;;5.65;1.80;;;;;;;9.26;68.25;101558.41;2067699;28;20046;-76
2022/02/26 01:27:52;;;;;;;2.42;1.60;;;;;;;9.24;68.12;101568.00;2064323;28;20078;-75
2022/02/26 01:29:14;;;;;;;4.65;1.23;;;;;;;9.21;68.41;101562.63;2063856;28;20604;-76
2022/02/26 01:30:37;;;;;;;;;;;;;;;9.19;68.31;101551.13;2065426;28;20746;-76
2022/02/26 01:31:59;;;;;;;4.22;1.75;;;;;;;9.13;68.31;101553.56;2059918;28;20442;-75
2022/02/26 01:33:22;;;;;;;3.88;1.58;;;;;;;9.09;68.26;101555.22;2073271;28;20054;-76
2022/02/26 01:34:45;;;;;;;3.15;1.60;;;;;;;9.07;68.36;101549.00;2068072;28;20042;-75
2022/02/26 01:36:07;;;;;;;4.63;1.90;;;;;;;9.07;68.49;101540.19;2072404;28;20668;-76
2022/02/26 01:37:29;;;;;;;3.50;1.50;;;;;;;9.06;68.37;101546.28;2067181;28;20541;-75
2022/02/26 01:38:54;;;;;;;4.32;1.73;;;;;;;9.07;68.39;101546.34;2066780;28;20054;-76
2022/02/26 01:40:17;;;;;;;3.63;1.67;;;;;;;9.06;68.39;101543.66;2064830;28;20045;-75
2022/02/26 01:41:40;;;;;;;4.82;1.42;;;;;;;9.05;68.41;101544.53;2064081;28;20111;-77
2022/02/26 01:43:02;;;;;;;4.80;1.55;;;;;;;9.04;68.40;101545.38;2066771;28;20696;-75
2022/02/26 01:44:25;;;;;;;4.05;1.30;;;;;;;9.00;68.31;101546.09;2065228;28;20477;-75
2022/02/26 01:45:48;;;;;;;4.47;1.55;;;;;;;8.95;68.33;101543.31;2073545;28;20060;-76
2022/02/26 01:47:12;;;;;;;3.33;1.58;;;;;;;8.91;68.25;101548.41;2066660;28;20081;-76
2022/02/26 01:48:35;;;;;;;4.07;1.60;;;;;;;8.92;68.39;101558.13;2073045;28;20053;-75
2022/02/26 01:49:57;;;;;;;2.85;1.52;;;;;;;8.92;68.36;101555.47;2068227;28;20037;-76
2022/02/26 01:51:19;;;;;;;2.10;1.25;;;;;;;8.92;68.05;101560.75;2064717;28;20061;-76
2022/02/26 01:52:42;;;;;;;1.95;1.13;;;;;;;8.87;68.27;101550.03;2065369;28;20037;-76
2022/02/26 01:54:06;;;;;;;2.45;1.42;;;;;;;8.86;68.16;101560.53;2065350;28;20049;-76
2022/02/26 01:55:29;;;;;;;2.33;1.48;;;;;;;8.81;68.16;101555.09;2073299;28;20069;-76
2022/02/26 01:56:52;;;;;;;2.28;1.08;;;;;;;8.78;68.45;101558.53;2067316;28;20104;-75
2022/02/26 01:58:14;;;;;;;2.15;0.82;;;;;;;8.75;68.44;101555.78;2060472;28;20495;-75
2022/02/26 01:59:37;;;;;;;3.60;1.50;;;;;;;8.77;68.84;101550.56;2065737;28;20601;-75
2022/02/26 02:01:00;;;;;;;1.10;0.90;;;;;;;8.76;68.69;101547.03;2072725;28;20091;-76
2022/02/26 02:02:23;;;;;;;1.65;0.73;;;;;;;8.73;68.86;101546.91;2068207;28;20058;-76
2022/02/26 02:03:44;;;;;;;2.92;1.10;;;;;;;8.71;68.92;101548.63;2073128;28;20458;-76
2022/02/26 02:05:08;;;;;;;5.97;1.52;;;;;;;8.73;69.12;101551.28;2067454;28;20038;-76
2022/02/26 02:06:30;;;;;;;5.03;1.80;;;;;;;8.76;69.24;101546.13;2073157;28;20521;-76
2022/02/26 02:07:52;;;;;;;;;;;;;;;8.78;69.09;101541.84;2066871;28;20207;-75
2022/02/26 02:09:16;;;;;;;4.28;1.80;;;;;;;8.78;69.17;101533.94;2076355;28;19929;-75
2022/02/26 02:10:40;;;;;;;2.28;1.42;;;;;;;8.79;68.84;101536.59;2070499;28;20057;-76
2022/02/26 02:12:03;;;;;;;5.43;2.08;;;;;;;8.75;68.83;101532.06;2074131;28;20048;-75
2022/02/26 02:13:25;;;;;;;3.47;1.60;;;;;;;8.76;68.97;101549.66;2075482;28;20049;-75
2022/02/26 02:14:48;;;;;;;17.27;14.00;;;;;;;8.74;68.81;101546.06;2066991;28;20077;-76
2022/02/26 02:16:10;;;;;;;20.75;18.52;;;;;;;8.66;68.84;101547.53;2074551;28;20079;-75
2022/02/26 02:17:32;;;;;;;12.70;10.15;;;;;;;8.65;68.92;101548.41;2073963;28;20045;-75
2022/02/26 02:18:55;;;;;;;5.18;2.85;;;;;;;8.64;68.83;101541.34;2075640;28;20565;-75
2022/02/26 02:20:16;;;;;;;2.85;1.80;;;;;;;8.64;68.80;101554.50;2070554;28;20062;-76
2022/02/26 02:21:39;;;;;;;2.80;1.30;;;;;;;8.60;68.73;101551.72;2065892;28;20046;-76
2022/02/26 02:23:03;;;;;;;2.70;1.55;;;;;;;8.58;68.79;101548.13;2065154;28;20061;-76
2022/02/26 02:24:26;;;;;;;2.45;1.48;;;;;;;8.55;69.05;101545.38;2072090;28;20045;-76
2022/02/26 02:25:48;;;;;;;4.82;1.67;;;;;;;8.53;68.88;101549.69;2069278;28;20042;-76
2022/02/26 02:27:12;;;;;;;2.72;1.65;;;;;;;8.53;69.20;101550.59;2072304;28;20081;-75
2022/02/26 02:28:34;;;;;;;3.08;1.30;;;;;;;8.52;69.18;101547.91;2073911;28;20045;-75
2022/02/26 02:29:57;;;;;;;3.78;1.67;;;;;;;8.56;69.24;101553.31;2074927;28;20097;-76
2022/02/26 02:31:20;;;;;;;4.72;1.60;;;;;;;8.58;69.14;101551.66;2066704;28;20050;-76
2022/02/26 02:32:43;;;;;;;8.40;1.80;;;;;;;8.61;69.20;101551.75;2067928;28;20057;-77
2022/02/26 02:34:06;;;;;;;4.70;1.45;;;;;;;8.63;69.15;101550.06;2072468;28;20053;-75
2022/02/26 02:35:29;;;;;;;3.78;2.20;;;;;;;8.68;69.16;101555.50;2074184;28;20044;-76
2022/02/26 02:36:51;;;;;;;4.75;1.50;;;;;;;8.70;69.54;101548.56;2065760;28;20073;-75
2022/02/26 02:38:17;;;;;;;2.53;1.13;;;;;;;8.75;69.34;101554.88;2075336;28;20049;-75
2022/02/26 02:39:43;;;;;;;3.70;1.80;;;;;;;8.76;69.32;101551.41;2075314;28;20128;-76
2022/02/26 02:41:06;;;;;;;3.95;1.60;;;;;;;8.74;69.22;101547.81;2075973;28;20050;-76
2022/02/26 02:42:28;;;;;;;5.40;1.50;;;;;;;8.72;69.30;101553.03;2065497;28;20077;-75
2022/02/26 02:43:51;;;;;;;2.00;0.93;;;;;;;8.70;69.38;101546.81;2072103;28;20487;-76
2022/02/26 02:45:12;;;;;;;2.15;1.35;;;;;;;8.70;69.23;101549.47;2075418;28;20053;-75
2022/02/26 02:46:35;;;;;;;2.42;1.13;;;;;;;8.65;69.42;101556.31;2073556;28;20041;-76
2022/02/26 02:47:56;;;;;;;2.72;1.27;;;;;;;8.65;69.43;101555.41;2065870;28;20046;-75
2022/02/26 02:49:19;;;;;;;4.85;2.33;;;;;;;8.65;69.45;101556.31;2071560;28;20068;-76
2022/02/26 02:50:42;;;;;;;6.88;2.95;;;;;;;8.64;69.25;101565.03;2067377;28;20033;-75
2022/02/26 02:52:06;;;;;;;2.88;1.95;;;;;;;8.64;69.50;101558.88;2074796;28;20054;-75
2022/02/26 02:53:30;;;;;;;3.72;1.95;;;;;;;8.65;69.17;101558.94;2075301;28;20099;-76
2022/02/26 02:54:52;;;;;;;2.92;1.42;;;;;;;8.60;69.02;101555.22;2075268;28;20045;-76
2022/02/26 02:56:14;;;;;;;2.05;1.45;;;;;;;8.60;69.10;101557.84;2066129;28;20049;-76
2022/02/26 02:57:36;;;;;;;3.97;1.40;;;;;;;8.58;69.04;101562.19;2072536;28;20115;-75
2022/02/26 02:58:59;;;;;;;;;;;;;;;8.57;69.19;101563.00;2067458;28;20068;-75
2022/02/26 03:00:22;;;;;;;3.47;1.70;;;;;;;8.53;69.29;101561.13;2061892;28;20421;-76
2022/02/26 03:01:45;;;;;;;9.20;1.70;;;;;;;8.52;69.25;101561.97;2072301;28;20049;-76
2022/02/26 03:03:08;;;;;;;6.85;1.88;;;;;;;8.48;69.34;101562.66;2069882;28;20132;-75
2022/02/26 03:04:30;;;;;;;4.13;2.03;;;;;;;8.48;69.06;101560.03;2074857;28;20135;-75
2022/02/26 03:05:53;;;;;;;4.60;1.75;;;;;;;8.48;69.29;101565.28;2069316;28;20056;-75
2022/02/26 03:07:16;;;;;;;5.03;1.90;;;;;;;8.47;69.36;101566.13;2071803;28;20041;-75
2022/02/26 03:08:40;;;;;;;7.90;3.95;;;;;;;8.49;69.44;101567.09;2076388;28;20049;-75
2022/02/26 03:10:03;;;;;;;9.05;4.15;;;;;;;8.47;69.59;101575.78;2081405;28;20119;-75
2022/02/26 03:11:25;;;;;;;12.75;5.32;;;;;;;8.47;69.33;101573.16;2068024;28;20140;-75
2022/02/26 03:12:52;;;;;;;15.18;7.25;;;;;;;8.47;69.76;101574.03;2069038;28;20479;-76
2022/02/26 03:14:14;;;;;;;11.98;4.63;;;;;;;8.46;69.65;101574.88;2075246;28;20481;-75
2022/02/26 03:15:37;;;;;;;9.57;3.83;;;;;;;8.47;69.69;101578.41;2077689;28;20045;-75
2022/02/26 03:16:58;;;;;;;5.82;3.05;;;;;;;8.46;69.76;101574.88;2068596;28;20565;-75
2022/02/26 03:18:21;;;;;;;2.13;1.40;;;;;;;8.45;69.71;101572.19;2067253;28;20060;-75
2022/02/26 03:19:49;;;;;;;3.70;1.80;;;;;;;8.40;69.57;101570.28;2072781;28;20604;-75
2022/02/26 03:21:10;;;;;;;3.20;1.85;;;;;;;8.36;69.92;101562.22;2081294;28;20057;-75
2022/02/26 03:22:33;;;;;;;2.10;1.10;;;;;;;8.34;69.95;101559.53;2069816;28;20046;-76
2022/02/26 03:23:57;;;;;;;4.15;1.33;;;;;;;8.36;69.99;101562.22;2073061;28;20084;-75
2022/02/26 03:25:23;;;;;;;5.15;1.48;;;;;;;8.33;70.25;101563.00;2077566;28;20071;-76
2022/02/26 03:26:50;;;;;;;4.05;1.60;;;;;;;8.32;70.14;101566.47;2077865;28;20041;-76
2022/02/26 03:28:13;;;;;;;3.17;1.50;;;;;;;8.31;70.20;101559.44;2067807;28;20541;-75
2022/02/26 03:29:35;;;;;;;3.38;1.33;;;;;;;8.30;70.17;101559.31;2061456;28;20037;-76
2022/02/26 03:30:58;;;;;;;3.33;1.48;;;;;;;8.29;70.16;101560.16;2074861;28;20479;-75
2022/02/26 03:32:21;;;;;;;1.27;0.90;;;;;;;8.26;70.30;101555.69;2071546;28;20050;-76
2022/02/26 03:33:45;;;;;;;2.47;1.02;;;;;;;8.26;70.31;101557.44;2074556;28;20054;-75
2022/02/26 03:35:08;;;;;;;7.93;1.50;;;;;;;8.28;70.33;101558.34;2067895;28;20038;-76
2022/02/26 03:36:34;;;;;;;2.88;1.48;;;;;;;8.29;70.71;101560.16;2074061;28;20087;-75
2022/02/26 03:37:57;;;;;;;2.30;1.35;;;;;;;8.31;70.62;101562.06;2077440;28;20065;-75
2022/02/26 03:39:20;;;;;;;4.57;1.60;;;;;;;8.35;70.61;101561.31;2077516;28;20144;-75
2022/02/26 03:40:43;;;;;;;3.42;1.48;;;;;;;8.31;70.26;101559.44;2077802;28;20033;-75
2022/02/26 03:42:07;;;;;;;2.28;1.17;;;;;;;8.28;70.34;101561.00;2073193;28;20057;-75
2022/02/26 03:43:29;;;;;;;3.20;1.30;;;;;;;8.26;70.10;101560.97;2072299;28;20124;-75
2022/02/26 03:44:51;;;;;;;4.22;1.90;;;;;;;8.24;70.22;101565.25;2068845;28;20042;-75
2022/02/26 03:46:14;;;;;;;4.88;1.63;;;;;;;8.26;70.28;101566.22;2073201;28;20092;-76
2022/02/26 03:47:35;;;;;;;6.03;1.75;;;;;;;8.24;70.16;101560.00;2069273;28;20050;-76
2022/02/26 03:48:58;;;;;;;2.35;1.23;;;;;;;8.23;70.33;101560.81;2066240;28;20044;-76
2022/02/26 03:50:20;;;;;;;3.38;1.27;;;;;;;8.24;70.71;101572.25;2078638;28;20057;-76
2022/02/26 03:51:43;;;;;;;2.53;1.13;;;;;;;8.27;70.68;101559.22;2075997;28;20088;-75
2022/02/26 03:53:08;;;;;;;1.88;1.30;;;;;;;8.28;70.54;101569.78;2077052;28;20091;-75
2022/02/26 03:54:31;;;;;;;2.58;1.27;;;;;;;8.28;70.62;101563.63;2076932;28;20072;-76
2022/02/26 03:55:54;;;;;;;4.57;0.98;;;;;;;8.27;70.63;101567.13;2073295;28;20581;-75
2022/02/26 03:57:17;;;;;;;2.75;1.05;;;;;;;8.27;70.76;101567.97;2068369;28;20096;-76
2022/02/26 03:58:39;;;;;;;1.88;1.10;;;;;;;8.29;70.88;101575.94;2069996;28;20053;-76
2022/02/26 04:00:03;;;;;;;1.33;1.00;;;;;;;8.31;70.90;101576.94;2072783;28;20041;-76
2022/02/26 04:01:32;;;;;;;5.72;1.88;;;;;;;8.33;70.92;101577.91;2078260;28;20132;-76
2022/02/26 04:02:55;;;;;;;3.47;1.50;;;;;;;8.35;71.04;101589.34;2079947;28;20042;-75
2022/02/26 04:04:16;;;;;;;2.15;1.40;;;;;;;8.33;70.99;101585.78;2076845;28;20124;-76
2022/02/26 04:05:39;;;;;;;3.75;1.30;;;;;;;8.28;70.79;101584.66;2070367;28;20049;-75
2022/02/26 04:07:00;;;;;;;4.25;1.60;;;;;;;8.24;70.94;101588.03;2076213;28;20060;-76
2022/02/26 04:08:23;;;;;;;3.67;1.00;;;;;;;8.19;71.02;101590.50;2068745;28;20061;-76
2022/02/26 04:09:46;;;;;;;2.17;0.80;;;;;;;8.18;70.98;101591.31;2067234;28;20041;-76
2022/02/26 04:11:08;;;;;;;5.35;1.30;;;;;;;8.16;71.01;101589.47;2076164;28;20045;-74
2022/02/26 04:12:31;;;;;;;3.63;1.25;;;;;;;8.13;71.31;101595.53;2078203;28;20038;-75
2022/02/26 04:13:54;;;;;;;3.10;1.50;;;;;;;8.11;70.95;101601.53;2076694;28;20483;-76
2022/02/26 04:15:16;;;;;;;2.40;1.38;;;;;;;8.07;71.04;101604.91;2076051;28;20053;-76
2022/02/26 04:16:39;;;;;;;2.53;0.93;;;;;;;8.05;71.34;101602.22;2076360;28;20742;-75
2022/02/26 04:18:02;;;;;;;2.70;1.40;;;;;;;8.05;71.23;101601.31;2078988;28;20578;-75
2022/02/26 04:19:23;;;;;;;3.50;1.70;;;;;;;8.02;71.36;101596.81;2066313;28;20077;-76
2022/02/26 04:20:46;;;;;;;4.65;1.63;;;;;;;8.01;71.53;101590.66;2074183;28;20085;-75
2022/02/26 04:22:09;;;;;;;3.35;1.63;;;;;;;8.02;71.52;101597.72;2065331;28;20070;-76
2022/02/26 04:23:32;;;;;;;7.05;1.75;;;;;;;8.01;71.66;101590.66;2068037;28;20045;-75
2022/02/26 04:24:56;;;;;;;4.60;1.75;;;;;;;8.02;71.85;101592.44;2072180;28;20512;-75
2022/02/26 04:26:18;;;;;;;4.78;1.85;;;;;;;8.01;71.83;101593.28;2076899;28;20057;-75
2022/02/26 04:27:40;;;;;;;3.60;1.67;;;;;;;8.02;71.93;101600.34;2069785;28;20085;-76
2022/02/26 04:29:03;;;;;;;4.28;1.40;;;;;;;8.00;71.92;101588.88;2069946;28;20054;-74
2022/02/26 04:30:25;;;;;;;4.90;1.52;;;;;;;8.00;71.80;101594.16;2079355;28;20132;-76
2022/02/26 04:31:48;;;;;;;5.45;1.63;;;;;;;8.01;71.70;101592.38;2074872;28;20065;-75
2022/02/26 04:33:09;;;;;;;3.20;1.38;;;;;;;7.97;71.97;101591.38;2063394;28;20050;-75
2022/02/26 04:34:31;;;;;;;2.63;1.58;;;;;;;7.95;72.06;101587.78;2062026;28;20059;-76
2022/02/26 04:35:53;;;;;;;4.25;1.65;;;;;;;7.95;72.11;101587.78;2069302;28;20042;-75
2022/02/26 04:37:17;;;;;;;2.83;1.70;;;;;;;7.93;72.31;101586.84;2060838;28;20081;-75
2022/02/26 04:38:40;;;;;;;3.45;1.20;;;;;;;7.96;72.29;101586.97;2063177;28;20050;-75
2022/02/26 04:40:04;;;;;;;2.17;1.27;;;;;;;7.99;72.66;101587.09;2067437;28;20046;-75
2022/02/26 04:41:27;;;;;;;3.15;1.38;;;;;;;8.00;72.59;101598.50;2068785;28;20503;-75
2022/02/26 04:42:51;;;;;;;13.45;3.10;;;;;;;8.01;72.73;101601.16;2062342;28;20108;-75
2022/02/26 04:44:14;;;;;;;6.53;3.28;;;;;;;8.04;72.73;101595.16;2067219;28;20081;-75
2022/02/26 04:45:35;;;;;;;10.77;4.13;;;;;;;8.08;72.78;101601.41;2074712;28;20128;-76
2022/02/26 04:46:58;;;;;;;10.32;3.58;;;;;;;8.09;72.68;101603.22;2070839;28;20502;-75
2022/02/26 04:48:19;;;;;;;9.65;3.95;;;;;;;8.07;72.79;101600.53;2070277;28;20128;-75
2022/02/26 04:49:42;;;;;;;6.85;2.72;;;;;;;8.06;72.69;101600.47;2060915;28;20047;-75
2022/02/26 04:51:06;;;;;;;8.35;3.67;;;;;;;8.04;72.72;101602.13;2063557;28;20046;-75
2022/02/26 04:52:28;;;;;;;8.65;3.70;;;;;;;8.01;72.66;101601.16;2068921;28;20046;-75
2022/02/26 04:53:51;;;;;;;7.93;3.05;;;;;;;7.98;72.72;101606.31;2064769;28;20050;-75
2022/02/26 04:55:15;;;;;;;6.85;3.38;;;;;;;8.01;72.67;101610.78;2062972;28;20054;-75
2022/02/26 04:56:37;;;;;;;7.25;3.30;;;;;;;7.99;72.81;101604.59;2062140;28;20112;-75
2022/02/26 04:57:59;;;;;;;6.18;2.88;;;;;;;7.99;72.74;101607.22;2069834;28;20072;-76
2022/02/26 04:59:21;;;;;;;7.78;3.40;;;;;;;7.98;72.76;101608.94;2068159;28;20053;-76
2022/02/26 05:00:44;;;;;;;16.77;10.20;;;;;;;7.96;72.99;101613.25;2068226;28;20687;-75
2022/02/26 05:02:07;;;;;;;8.77;4.55;;;;;;;7.96;72.78;101607.09;2064289;28;20054;-75
2022/02/26 05:03:29;;;;;;;7.55;4.20;;;;;;;7.95;73.09;101608.81;2069409;28;20046;-75
2022/02/26 05:04:52;;;;;;;9.50;3.80;;;;;;;7.95;72.91;101605.28;2070346;28;20053;-76
2022/02/26 05:06:14;;;;;;;6.82;3.00;;;;;;;7.95;73.19;101619.34;2069305;28;20062;-75
2022/02/26 05:07:35;;;;;;;3.75;2.22;;;;;;;7.97;73.49;101608.88;2062153;28;20673;-75
2022/02/26 05:08:58;;;;;;;5.88;2.80;;;;;;;7.99;73.50;101610.75;2059449;28;20038;-75
2022/02/26 05:10:23;;;;;;;4.40;2.72;;;;;;;8.05;73.71;101614.44;2059405;28;20046;-75
2022/02/26 05:11:45;;;;;;;7.15;3.22;;;;;;;8.07;73.81;101613.69;2059119;28;20109;-75
2022/02/26 05:13:08;;;;;;;5.32;3.03;;;;;;;8.11;73.96;101623.47;2059253;28;20675;-75
2022/02/26 05:14:29;;;;;;;6.20;3.05;;;;;;;8.14;73.95;101612.19;2065919;28;20523;-75
2022/02/26 05:15:52;;;;;;;3.50;2.15;;;;;;;8.18;73.91;101619.34;2068523;28;20073;-75
2022/02/26 05:17:15;;;;;;;7.47;3.03;;;;;;;8.22;74.00;101614.25;2066622;28;20053;-75
2022/02/26 05:18:38;;;;;;;1.85;1.30;;;;;;;8.25;74.02;101627.53;2050615;28;20050;-76
2022/02/26 05:20:00;;;;;;;3.95;1.58;;;;;;;8.29;74.18;101633.81;2063413;28;20041;-76
2022/02/26 05:21:23;;;;;;;2.83;1.23;;;;;;;8.31;74.14;101638.34;2062220;28;20046;-75
2022/02/26 05:22:44;;;;;;;2.70;1.15;;;;;;;8.34;74.27;101634.91;2063733;28;20369;-74
2022/02/26 05:24:07;;;;;;;5.15;1.35;;;;;;;8.40;74.38;101632.53;2059265;28;20077;-75
2022/02/26 05:25:32;;;;;;;5.28;1.52;;;;;;;8.44;74.54;101634.44;2059673;28;20113;-75
2022/02/26 05:26:53;;;;;;;3.55;0.98;;;;;;;8.48;74.47;101635.44;2074104;28;20041;-75
2022/02/26 05:28:15;;;;;;;4.50;1.67;;;;;;;8.55;74.54;101632.19;2080570;28;20046;-75
2022/02/26 05:29:38;;;;;;;2.63;1.08;;;;;;;8.63;74.75;101636.03;2078142;28;20067;-76
2022/02/26 05:31:01;;;;;;;6.63;1.92;;;;;;;8.75;74.82;101633.84;2085294;28;20078;-75
2022/02/26 05:32:22;;;;;;;3.92;1.48;;;;;;;8.89;75.08;101631.72;2080710;28;20045;-75
2022/02/26 05:33:45;;;;;;;2.72;1.15;;;;;;;9.04;75.14;101634.91;2076978;28;20562;-75
2022/02/26 05:35:09;;;;;;;6.82;1.52;;;;;;;9.21;75.38;101636.38;2078167;28;20041;-75
2022/02/26 05:36:31;;;;;;;2.88;1.63;;;;;;;9.36;75.24;101633.41;2080839;28;20132;-75
2022/02/26 05:37:54;;;;;;;5.70;1.65;;;;;;;9.52;75.49;101636.59;2070204;28;20093;-75
2022/02/26 05:39:17;;;;;;;4.60;1.23;;;;;;;9.69;75.49;101631.00;2073981;28;20049;-75
2022/02/26 05:40:41;;;;;;;4.90;1.38;;;;;;;9.88;75.81;101643.94;2076283;28;20510;-76
2022/02/26 05:42:04;;;;;;;3.08;1.48;;;;;;;10.03;75.78;101646.19;2068839;28;20049;-75
2022/02/26 05:43:27;;;;;;;3.00;1.10;;;;;;;10.18;75.88;101638.75;2074883;28;20044;-75
2022/02/26 05:44:50;;;;;;;5.28;1.67;;;;;;;10.33;76.06;101641.88;2077604;28;20100;-75
2022/02/26 05:46:12;;;;;;;4.22;1.45;;;;;;;10.52;75.93;101652.16;2080568;28;20115;-76
2022/02/26 05:47:35;;;;;;;2.33;1.17;;;;;;;10.66;75.89;101642.91;2080595;28;20044;-76
2022/02/26 05:48:56;;;;;;;2.25;1.17;;;;;;;10.84;75.91;101634.59;2077519;28;20076;-76
2022/02/26 05:50:19;;;;;;;1.65;1.00;;;;;;;11.01;75.73;101648.31;2070459;28;20045;-76
2022/02/26 05:51:40;;;;;;;2.28;1.08;;;;;;;11.12;75.77;101639.81;2076201;28;20084;-76
2022/02/26 05:53:03;;;;;;;3.80;1.40;;;;;;;11.25;75.70;101645.41;2075016;28;20049;-76
2022/02/26 05:54:24;;;;;;;3.78;1.23;;;;;;;11.40;75.67;101648.50;2069375;28;20138;-75
2022/02/26 05:55:48;;;;;;;2.70;0.95;;;;;;;11.57;75.64;101641.88;2070767;28;20042;-76
2022/02/26 05:57:10;;;;;;;4.10;1.48;;;;;;;11.70;75.47;101645.72;2076094;28;20085;-75
2022/02/26 05:58:32;;;;;;;3.00;1.00;;;;;;;11.85;75.39;101647.03;2077991;28;20037;-75
2022/02/26 05:59:55;;;;;;;1.58;0.80;;;;;;;12.05;75.16;101643.97;2063852;28;20516;-76
2022/02/26 06:01:17;;;;;;;2.03;0.95;;;;;;;12.19;74.71;101640.81;2073761;28;20115;-75
2022/02/26 06:02:40;;;;;;;4.13;1.23;;;;;;;12.28;74.04;101645.41;2066046;28;20583;-75
2022/02/26 06:04:03;;;;;;;2.88;0.90;;;;;;;12.32;73.42;101641.97;2075226;28;20124;-76
2022/02/26 06:05:25;;;;;;;2.38;0.90;;;;;;;12.33;72.81;101641.13;2075763;28;20049;-75
2022/02/26 06:06:48;;;;;;;2.92;0.82;;;;;;;12.40;72.29;101640.41;2077417;28;20534;-75
2022/02/26 06:08:11;;;;;;;1.30;0.90;;;;;;;12.44;71.78;101641.34;2075297;28;20611;-76
2022/02/26 06:09:33;;;;;;;3.45;0.70;;;;;;;12.47;71.38;101642.28;2067421;28;20046;-75
2022/02/26 06:10:57;;;;;;;3.70;1.30;;;;;;;12.57;71.26;101635.47;2067194;28;20041;-76
2022/02/26 06:12:19;;;;;;;2.75;0.90;;;;;;;12.65;71.13;101636.53;2075392;28;20503;-75
2022/02/26 06:13:41;;;;;;;3.55;0.77;;;;;;;12.72;70.54;101639.34;2077423;28;20124;-76
2022/02/26 06:15:05;;;;;;;1.55;0.80;;;;;;;12.88;70.44;101642.28;2068768;28;20581;-76
2022/02/26 06:16:26;;;;;;;3.22;0.93;;;;;;;12.99;70.30;101636.34;2078392;28;20064;-76
2022/02/26 06:17:48;;;;;;;1.83;1.20;;;;;;;13.12;70.11;101633.13;2075816;28;20487;-76
2022/02/26 06:19:11;;;;;;;1.85;1.00;;;;;;;13.24;69.91;101635.09;2069018;28;20121;-75
2022/02/26 06:20:35;;;;;;;3.15;1.38;;;;;;;13.40;69.80;101638.91;2068107;28;20092;-76
2022/02/26 06:21:58;;;;;;;6.63;3.40;;;;;;;13.51;69.51;101632.94;2067990;28;20538;-76
2022/02/26 06:23:20;;;;;;;7.82;3.70;;;;;;;13.59;69.11;101640.16;2079690;28;20070;-76
2022/02/26 06:24:43;;;;;;;6.43;4.10;;;;;;;13.63;68.29;101644.63;2076044;28;20083;-76
2022/02/26 06:26:07;;;;;;;13.30;7.60;;;;;;;13.73;68.21;101633.28;2079735;28;20053;-76
2022/02/26 06:27:29;;;;;;;12.02;6.68;;;;;;;13.86;67.89;101637.94;2084233;28;20411;-76
2022/02/26 06:28:51;;;;;;;9.35;5.68;;;;;;;13.92;67.27;101635.38;2078326;28;20041;-76
2022/02/26 06:30:15;;;;;;;39.20;23.98;;;;;;;13.99;66.99;101645.22;2077578;28;20049;-76